createdAt,value
2023-04-22T00:00:22.743Z,99938.78
2023-04-22T00:01:54.639Z,99935.34
2023-04-22T00:03:27.211Z,99940.00
2023-04-22T00:04:59.555Z,99932.06
2023-04-22T00:06:32.201Z,99932.31
2023-04-22T00:08:04.535Z,99941.34
2023-04-22T00:09:36.877Z,99934.53
2023-04-22T00:11:08.868Z,99934.63
2023-04-22T00:12:40.685Z,99936.88
2023-04-22T00:14:12.504Z,99930.88
2023-04-22T00:15:44.585Z,99934.78
2023-04-22T00:17:16.414Z,99922.72
2023-04-22T00:18:48.675Z,99936.25
2023-04-22T00:20:24.185Z,99928.69
2023-04-22T00:26:18.133Z,99935.56
2023-04-22T00:27:50.029Z,99928.69
2023-04-22T00:29:21.907Z,99930.78
2023-04-22T00:30:53.993Z,99929.22
2023-04-22T00:32:26.978Z,99925.88
2023-04-22T00:33:58.770Z,99929.81
2023-04-22T00:35:30.661Z,99931.88
2023-04-22T00:37:02.557Z,99924.06
2023-04-22T00:38:34.350Z,99925.91
2023-04-22T00:40:07.158Z,99928.81
2023-04-22T00:41:39.918Z,99929.91
2023-04-22T00:43:13.424Z,99915.78
2023-04-22T00:44:47.328Z,99917.72
2023-04-22T00:46:20.829Z,99917.84
2023-04-22T00:47:53.183Z,99918.94
2023-04-22T00:49:27.550Z,99910.97
2023-04-22T00:50:59.331Z,99913.66
2023-04-22T00:52:31.285Z,99914.78
2023-04-22T00:54:03.714Z,99911.31
2023-04-22T00:55:35.767Z,99913.06
2023-04-22T00:57:07.664Z,99907.44
2023-04-22T00:58:39.716Z,99904.03
2023-04-22T01:00:12.245Z,99902.22
2023-04-22T01:01:44.517Z,99901.09
2023-04-22T01:03:17.096Z,99900.97
2023-04-22T01:04:49.385Z,99901.84
2023-04-22T01:06:23.093Z,99897.31
2023-04-22T01:07:55.060Z,99900.75
2023-04-22T01:09:26.844Z,99901.59
2023-04-22T01:10:59.156Z,99900.75
2023-04-22T01:12:30.938Z,99895.97
2023-04-22T01:14:04.057Z,99904.66
2023-04-22T01:15:35.971Z,99902.81
2023-04-22T01:17:10.281Z,99907.34
2023-04-22T01:18:42.300Z,99901.72
2023-04-22T01:20:14.253Z,99900.63
2023-04-22T01:21:47.431Z,99896.72
2023-04-22T01:23:20.382Z,99900.16
2023-04-22T01:24:52.574Z,99898.19
2023-04-22T01:26:26.099Z,99894.53
2023-04-22T01:27:58.587Z,99891.84
2023-04-22T01:29:30.672Z,99898.78
2023-04-22T01:31:02.596Z,99898.69
2023-04-22T01:32:35.195Z,99902.81
2023-04-22T01:34:07.247Z,99902.81
2023-04-22T01:35:40.230Z,99907.09
2023-04-22T01:37:12.087Z,99899.88
2023-04-22T01:38:44.407Z,99894.50
2023-04-22T01:40:19.894Z,99897.19
2023-04-22T01:41:52.174Z,99899.66
2023-04-22T01:43:24.113Z,99883.66
2023-04-22T01:44:55.928Z,99892.69
2023-04-22T01:46:27.864Z,99890.84
2023-04-22T01:47:59.929Z,99880.22
2023-04-22T01:49:31.794Z,99882.06
2023-04-22T01:51:03.959Z,99891.97
2023-04-22T01:52:35.790Z,99884.16
2023-04-22T01:54:08.654Z,99885.25
2023-04-22T01:55:40.512Z,99894.28
2023-04-22T01:57:14.459Z,99888.28
2023-04-22T01:58:46.460Z,99881.22
2023-04-22T02:00:19.406Z,99879.84
2023-04-22T02:01:53.085Z,99879.16
2023-04-22T02:03:25.635Z,99869.34
2023-04-22T02:04:59.147Z,99877.56
2023-04-22T02:06:32.360Z,99875.09
2023-04-22T02:08:05.150Z,99880.63
2023-04-22T02:09:37.310Z,99884.38
2023-04-22T02:11:09.307Z,99880.84
2023-04-22T02:12:41.172Z,99881.94
2023-04-22T02:14:13.019Z,99876.69
2023-04-22T02:15:44.961Z,99878.66
2023-04-22T02:17:17.929Z,99884.88
2023-04-22T02:18:51.211Z,99878.75
2023-04-22T02:20:23.006Z,99876.06
2023-04-22T02:21:55.932Z,99884.25
2023-04-22T02:23:28.005Z,99878.91
2023-04-22T02:24:59.872Z,99874.50
2023-04-22T02:26:31.836Z,99873.72
2023-04-22T02:28:03.876Z,99871.94
2023-04-22T02:29:36.461Z,99866.75
2023-04-22T02:31:08.509Z,99870.28
2023-04-22T02:32:40.632Z,99868.59
2023-04-22T02:34:12.457Z,99866.91
2023-04-22T02:35:44.295Z,99859.81
2023-04-22T02:37:23.065Z,99865.31
2023-04-22T02:38:55.023Z,99864.69
2023-04-22T02:40:26.999Z,99866.53
2023-04-22T02:41:58.852Z,99867.63
2023-04-22T02:43:31.065Z,99863.19
2023-04-22T02:45:03.230Z,99857.13
2023-04-22T02:46:36.369Z,99864.44
2023-04-22T02:48:08.402Z,99866.50
2023-04-22T02:49:41.467Z,99865.50
2023-04-22T02:51:14.523Z,99860.38
2023-04-22T02:52:46.598Z,99868.44
2023-04-22T02:54:18.699Z,99868.56
2023-04-22T02:55:52.555Z,99855.38
2023-04-22T02:57:24.382Z,99861.75
2023-04-22T02:58:56.211Z,99861.84
2023-04-22T03:00:29.624Z,99858.31
2023-04-22T03:02:01.692Z,99862.69
2023-04-22T03:03:47.319Z,99861.75
2023-04-22T03:05:25.284Z,99859.06
2023-04-22T03:06:57.709Z,99856.38
2023-04-22T03:08:29.516Z,99861.75
2023-04-22T03:10:01.504Z,99856.38
2023-04-22T03:11:33.377Z,99858.31
2023-04-22T03:13:05.208Z,99855.84
2023-04-22T03:14:37.141Z,99868.19
2023-04-22T03:16:09.581Z,99856.59
2023-04-22T03:17:43.249Z,99852.19
2023-04-22T03:19:18.193Z,99856.84
2023-04-22T03:20:50.229Z,99845.88
2023-04-22T03:22:23.162Z,99850.38
2023-04-22T03:23:57.051Z,99849.41
2023-04-22T03:25:28.902Z,99849.50
2023-04-22T03:27:02.327Z,99845.88
2023-04-22T03:28:34.642Z,99843.19
2023-04-22T03:30:07.785Z,99839.53
2023-04-22T03:31:40.419Z,99842.19
2023-04-22T03:33:12.464Z,99843.81
2023-04-22T03:34:49.127Z,99842.19
2023-04-22T03:36:21.633Z,99851.00
2023-04-22T03:37:54.152Z,99844.53
2023-04-22T03:39:31.692Z,99843.56
2023-04-22T03:41:03.589Z,99843.56
2023-04-22T03:42:43.603Z,99852.47
2023-04-22T03:44:16.401Z,99855.91
2023-04-22T03:45:51.401Z,99849.66
2023-04-22T03:47:28.304Z,99853.31
2023-04-22T03:49:06.771Z,99857.84
2023-04-22T03:50:40.165Z,99853.44
2023-04-22T03:52:12.504Z,99847.09
2023-04-22T03:53:50.702Z,99843.66
2023-04-22T03:55:25.693Z,99850.03
2023-04-22T03:56:58.839Z,99841.22
2023-04-22T03:58:31.749Z,99843.28
2023-04-22T04:00:06.245Z,99848.03
2023-04-22T04:01:47.066Z,99847.56
2023-04-22T04:03:21.111Z,99849.50
2023-04-22T04:04:56.566Z,99853.28
2023-04-22T04:06:28.768Z,99844.59
2023-04-22T04:08:00.611Z,99845.59
2023-04-22T04:09:32.690Z,99840.22
2023-04-22T04:11:04.621Z,99835.84
2023-04-22T04:12:36.662Z,99842.16
2023-04-22T04:14:08.495Z,99841.31
2023-04-22T04:16:07.140Z,99842.28
2023-04-22T04:17:39.958Z,99853.13
2023-04-22T04:19:12.089Z,99842.63
2023-04-22T04:20:44.060Z,99841.78
2023-04-22T04:22:15.922Z,99843.59
2023-04-22T04:23:56.119Z,99841.78
2023-04-22T04:25:37.895Z,99845.44
2023-04-22T04:27:14.076Z,99848.97
2023-04-22T04:28:52.498Z,99843.59
2023-04-22T04:30:25.840Z,99850.81
2023-04-22T04:31:59.794Z,99845.53
2023-04-22T04:33:33.232Z,99845.53
2023-04-22T04:35:06.326Z,99843.59
2023-04-22T04:36:40.076Z,99843.59
2023-04-22T04:38:26.515Z,99843.59
2023-04-22T04:40:01.921Z,99845.44
2023-04-22T04:41:46.465Z,99845.66
2023-04-22T04:43:18.867Z,99850.06
2023-04-22T04:44:59.731Z,99852.75
2023-04-22T04:46:32.657Z,99851.88
2023-04-22T04:48:07.363Z,99844.69
2023-04-22T04:49:42.372Z,99846.53
2023-04-22T04:51:15.203Z,99845.44
2023-04-22T04:52:55.015Z,99841.69
2023-04-22T04:54:32.403Z,99851.19
2023-04-22T04:56:05.372Z,99844.00
2023-04-22T04:57:38.458Z,99835.72
2023-04-22T04:59:11.034Z,99846.06
2023-04-22T05:00:43.996Z,99846.06
2023-04-22T05:02:16.886Z,99853.03
2023-04-22T05:03:49.099Z,99845.84
2023-04-22T05:05:22.932Z,99846.72
2023-04-22T05:06:55.226Z,99846.34
2023-04-22T05:08:27.350Z,99846.97
2023-04-22T05:10:06.611Z,99846.59
2023-04-22T05:11:38.505Z,99851.00
2023-04-22T05:13:17.081Z,99856.13
2023-04-22T05:14:51.168Z,99850.53
2023-04-22T05:16:23.126Z,99857.47
2023-04-22T05:17:55.193Z,99856.28
2023-04-22T05:19:27.100Z,99859.56
2023-04-22T05:21:00.124Z,99862.00
2023-04-22T05:22:31.987Z,99856.50
2023-04-22T05:24:04.057Z,99865.16
2023-04-22T05:25:36.029Z,99853.97
2023-04-22T05:27:13.458Z,99852.41
2023-04-22T05:28:45.868Z,99857.53
2023-04-22T05:30:17.864Z,99858.00
2023-04-22T05:31:49.738Z,99850.88
2023-04-22T05:33:21.635Z,99849.50
2023-04-22T05:34:54.487Z,99852.59
2023-04-22T05:36:30.591Z,99844.63
2023-04-22T05:38:03.342Z,99845.56
2023-04-22T05:39:37.121Z,99855.09
2023-04-22T05:41:12.291Z,99857.78
2023-04-22T05:42:44.145Z,99856.75
2023-04-22T05:44:17.739Z,99853.25
2023-04-22T05:45:49.971Z,99855.28
2023-04-22T05:47:23.163Z,99849.75
2023-04-22T05:48:56.332Z,99851.84
2023-04-22T05:50:46.870Z,99862.69
2023-04-22T05:52:20.126Z,99853.53
2023-04-22T05:54:01.046Z,99853.44
2023-04-22T05:55:32.948Z,99851.81
2023-04-22T05:57:04.922Z,99847.59
2023-04-22T05:58:37.871Z,99854.16
2023-04-22T06:00:19.306Z,99847.75
2023-04-22T06:02:03.693Z,99846.75
2023-04-22T06:03:35.707Z,99860.25
2023-04-22T06:05:08.547Z,99847.91
2023-04-22T06:06:40.597Z,99846.63
2023-04-22T06:08:12.449Z,99848.00
2023-04-22T06:09:44.669Z,99846.53
2023-04-22T06:11:16.474Z,99843.28
2023-04-22T06:12:48.305Z,99845.16
2023-04-22T06:14:20.275Z,99846.63
2023-04-22T06:15:52.807Z,99853.69
2023-04-22T06:17:24.794Z,99854.66
2023-04-22T06:18:57.760Z,99852.88
2023-04-22T06:20:32.821Z,99852.94
2023-04-22T06:22:04.672Z,99856.44
2023-04-22T06:23:36.516Z,99852.78
2023-04-22T06:25:11.352Z,99856.41
2023-04-22T06:26:43.285Z,99857.19
2023-04-22T06:28:15.257Z,99853.41
2023-04-22T06:29:47.598Z,99853.19
2023-04-22T06:31:21.160Z,99853.50
2023-04-22T06:32:55.324Z,99852.22
2023-04-22T06:34:27.216Z,99856.09
2023-04-22T06:35:59.464Z,99850.00
2023-04-22T06:37:32.209Z,99851.81
2023-04-22T06:39:05.972Z,99860.25
2023-04-22T06:40:46.270Z,99852.28
2023-04-22T06:42:41.999Z,99844.19
2023-04-22T06:44:22.928Z,99847.59
2023-04-22T06:46:07.482Z,99845.75
2023-04-22T06:48:02.555Z,99851.16
2023-04-22T06:49:50.521Z,99851.16
2023-04-22T06:51:28.944Z,99854.22
2023-04-22T06:53:01.047Z,99852.06
2023-04-22T06:54:32.993Z,99853.63
2023-04-22T06:56:05.979Z,99854.16
2023-04-22T06:57:37.854Z,99861.00
2023-04-22T06:59:09.714Z,99863.22
2023-04-22T07:00:41.568Z,99857.50
2023-04-22T07:02:13.693Z,99859.75
2023-04-22T07:03:46.113Z,99865.88
2023-04-22T07:05:20.142Z,99865.25
2023-04-22T07:06:52.740Z,99861.09
2023-04-22T07:08:24.618Z,99860.78
2023-04-22T07:09:56.434Z,99858.75
2023-04-22T07:11:32.028Z,99864.38
2023-04-22T07:13:08.348Z,99862.22
2023-04-22T07:14:46.962Z,99852.44
2023-04-22T07:16:19.561Z,99850.03
2023-04-22T07:17:51.432Z,99857.34
2023-04-22T07:19:23.261Z,99845.88
2023-04-22T07:20:55.105Z,99843.53
2023-04-22T07:22:26.926Z,99847.34
2023-04-22T07:23:58.937Z,99844.34
2023-04-22T07:25:30.976Z,99840.69
2023-04-22T07:27:03.392Z,99838.69
2023-04-22T07:28:35.243Z,99831.28
2023-04-22T07:30:08.515Z,99831.03
2023-04-22T07:31:40.415Z,99832.13
2023-04-22T07:33:12.943Z,99842.38
2023-04-22T07:34:44.935Z,99830.91
2023-04-22T07:36:16.755Z,99833.16
2023-04-22T07:37:48.673Z,99834.38
2023-04-22T07:39:20.452Z,99834.03
2023-04-22T07:40:52.438Z,99831.28
2023-04-22T07:42:24.833Z,99837.03
2023-04-22T07:43:56.819Z,99837.38
2023-04-22T07:45:28.791Z,99829.53
2023-04-22T07:47:00.770Z,99829.34
2023-04-22T07:48:32.608Z,99836.28
2023-04-22T07:50:05.015Z,99824.00
2023-04-22T07:51:36.827Z,99828.91
2023-04-22T07:53:10.481Z,99832.56
2023-04-22T07:54:42.306Z,99817.34
2023-04-22T07:56:14.154Z,99814.53
2023-04-22T07:57:46.114Z,99814.75
2023-04-22T07:59:18.129Z,99809.81
2023-04-22T08:00:49.950Z,99807.06
2023-04-22T08:02:22.217Z,99809.97
2023-04-22T08:03:54.296Z,99816.66
2023-04-22T08:05:26.508Z,99817.91
2023-04-22T08:06:58.364Z,99815.63
2023-04-22T08:08:30.396Z,99821.34
2023-04-22T08:10:02.375Z,99810.84
2023-04-22T08:11:34.285Z,99812.50
2023-04-22T08:13:06.351Z,99813.38
2023-04-22T08:14:38.274Z,99812.44
2023-04-22T08:16:10.094Z,99818.69
2023-04-22T08:17:42.082Z,99819.44
2023-04-22T08:19:13.907Z,99811.13
2023-04-22T08:20:46.414Z,99816.31
2023-04-22T08:22:19.361Z,99813.66
2023-04-22T08:23:52.304Z,99814.78
2023-04-22T08:25:24.102Z,99811.28
2023-04-22T08:26:56.887Z,99817.09
2023-04-22T08:28:28.727Z,99815.66
2023-04-22T08:30:00.713Z,99812.97
2023-04-22T08:31:32.609Z,99806.25
2023-04-22T08:33:04.585Z,99809.41
2023-04-22T08:34:37.256Z,99800.41
2023-04-22T08:36:10.074Z,99812.22
2023-04-22T08:37:42.213Z,99798.75
2023-04-22T08:39:14.184Z,99802.13
2023-04-22T08:40:46.711Z,99802.31
2023-04-22T08:42:20.636Z,99801.84
2023-04-22T08:43:56.133Z,99805.47
2023-04-22T08:45:28.875Z,99797.66
2023-04-22T08:47:03.050Z,99799.72
2023-04-22T08:48:35.021Z,99806.66
2023-04-22T08:50:09.852Z,99795.25
2023-04-22T08:51:43.022Z,99802.38
2023-04-22T08:53:15.132Z,99790.53
2023-04-22T08:54:46.978Z,99791.34
2023-04-22T08:56:18.868Z,99792.38
2023-04-22T08:57:50.896Z,99788.31
2023-04-22T08:59:23.190Z,99795.22
2023-04-22T09:00:55.680Z,99783.13
2023-04-22T09:02:32.079Z,99789.22
2023-04-22T09:04:05.211Z,99785.97
2023-04-22T09:05:39.846Z,99782.13
2023-04-22T09:07:12.330Z,99782.13
2023-04-22T09:08:44.156Z,99782.53
2023-04-22T09:10:17.693Z,99783.09
2023-04-22T09:11:49.715Z,99786.25
2023-04-22T09:13:23.198Z,99779.06
2023-04-22T09:14:56.444Z,99773.50
2023-04-22T09:16:31.124Z,99768.84
2023-04-22T09:18:04.594Z,99772.44
2023-04-22T09:19:36.609Z,99768.25
2023-04-22T09:21:08.926Z,99767.66
2023-04-22T09:22:46.148Z,99766.28
2023-04-22T09:24:18.288Z,99767.16
2023-04-22T09:25:50.429Z,99763.53
2023-04-22T09:27:25.496Z,99764.81
2023-04-22T09:28:59.095Z,99760.34
2023-04-22T09:30:33.646Z,99759.50
2023-04-22T09:32:12.099Z,99757.59
2023-04-22T09:33:55.107Z,99751.88
2023-04-22T09:35:35.093Z,99748.34
2023-04-22T09:37:07.316Z,99751.94
2023-04-22T09:38:39.183Z,99748.94
2023-04-22T09:40:16.222Z,99739.47
2023-04-22T09:41:54.962Z,99738.78
2023-04-22T09:43:26.979Z,99744.34
2023-04-22T09:45:01.268Z,99735.88
2023-04-22T09:46:35.064Z,99727.63
2023-04-22T09:48:11.913Z,99737.50
2023-04-22T09:49:47.077Z,99730.13
2023-04-22T09:51:19.366Z,99726.75
2023-04-22T09:53:03.198Z,99720.47
2023-04-22T09:54:37.610Z,99724.25
2023-04-22T09:56:09.520Z,99722.38
2023-04-22T09:57:41.339Z,99708.63
2023-04-22T09:59:13.139Z,99723.41
2023-04-22T10:00:48.960Z,99712.91
2023-04-22T10:02:29.208Z,99713.16
2023-04-22T10:04:03.910Z,99712.72
2023-04-22T10:05:39.026Z,99716.31
2023-04-22T10:07:10.935Z,99713.31
2023-04-22T10:08:44.778Z,99706.78
2023-04-22T10:10:16.650Z,99711.25
2023-04-22T10:11:50.941Z,99709.13
2023-04-22T10:13:22.792Z,99709.72
2023-04-22T10:14:54.603Z,99708.69
2023-04-22T10:16:28.724Z,99703.19
2023-04-22T10:18:02.176Z,99704.47
2023-04-22T10:19:35.459Z,99709.28
2023-04-22T10:21:07.517Z,99703.56
2023-04-22T10:22:43.025Z,99705.47
2023-04-22T10:24:19.138Z,99711.31
2023-04-22T10:25:54.681Z,99708.97
2023-04-22T10:27:26.701Z,99708.94
2023-04-22T10:28:58.575Z,99697.50
2023-04-22T10:30:32.737Z,99701.00
2023-04-22T10:32:26.140Z,99698.94
2023-04-22T10:34:13.283Z,99702.94
2023-04-22T10:36:20.501Z,99690.22
2023-04-22T10:37:52.819Z,99702.19
2023-04-22T10:39:26.175Z,99701.97
2023-04-22T10:41:01.620Z,99696.00
2023-04-22T10:42:33.704Z,99695.56
2023-04-22T10:44:08.761Z,99693.78
2023-04-22T10:45:40.696Z,99698.69
2023-04-22T10:47:12.588Z,99698.38
2023-04-22T10:48:48.905Z,99706.34
2023-04-22T10:50:32.936Z,99698.09
2023-04-22T10:52:08.008Z,99699.03
2023-04-22T10:53:40.967Z,99689.47
2023-04-22T10:55:12.993Z,99691.03
2023-04-22T10:57:02.290Z,99700.94
2023-04-22T10:58:34.211Z,99694.31
2023-04-22T11:00:22.454Z,99688.19
2023-04-22T11:01:54.358Z,99686.19
2023-04-22T11:03:30.828Z,99686.19
2023-04-22T11:05:25.872Z,99686.09
2023-04-22T11:07:18.264Z,99677.63
2023-04-22T11:08:50.811Z,99678.38
2023-04-22T11:10:45.455Z,99684.50
2023-04-22T11:12:35.395Z,99674.41
2023-04-22T11:14:09.332Z,99673.25
2023-04-22T11:15:43.164Z,99672.16
2023-04-22T11:17:15.039Z,99680.44
2023-04-22T11:18:47.074Z,99676.00
2023-04-22T11:20:19.195Z,99668.75
2023-04-22T11:21:53.186Z,99674.25
2023-04-22T11:23:28.844Z,99675.53
2023-04-22T11:25:01.738Z,99672.84
2023-04-22T11:26:35.585Z,99672.16
2023-04-22T11:28:08.061Z,99672.59
2023-04-22T11:29:40.300Z,99669.47
2023-04-22T11:31:12.525Z,99669.22
2023-04-22T11:32:49.831Z,99660.75
2023-04-22T11:34:21.831Z,99663.34
2023-04-22T11:35:53.726Z,99666.09
2023-04-22T11:37:25.645Z,99669.31
2023-04-22T11:38:57.694Z,99663.59
2023-04-22T11:40:33.782Z,99650.66
2023-04-22T11:42:07.146Z,99659.75
2023-04-22T11:43:47.458Z,99657.94
2023-04-22T11:45:19.248Z,99660.47
2023-04-22T11:46:51.326Z,99664.22
2023-04-22T11:48:23.724Z,99653.88
2023-04-22T11:50:02.101Z,99658.41
2023-04-22T11:51:33.982Z,99653.50
2023-04-22T11:53:21.094Z,99653.97
2023-04-22T11:54:53.069Z,99651.00
2023-04-22T11:56:25.232Z,99654.44
2023-04-22T11:58:02.282Z,99650.59
2023-04-22T11:59:34.888Z,99642.22
2023-04-22T12:01:06.758Z,99646.50
2023-04-22T12:02:38.723Z,99649.72
2023-04-22T12:04:11.258Z,99652.94
2023-04-22T12:05:48.113Z,99655.78
2023-04-22T12:07:19.959Z,99653.69
2023-04-22T12:08:51.807Z,99648.66
2023-04-22T12:10:23.829Z,99650.56
2023-04-22T12:11:56.296Z,99655.22
2023-04-22T12:13:33.218Z,99647.44
2023-04-22T12:15:12.790Z,99647.44
2023-04-22T12:16:45.751Z,99635.75
2023-04-22T12:18:29.755Z,99643.44
2023-04-22T12:20:01.762Z,99635.59
2023-04-22T12:21:34.013Z,99637.03
2023-04-22T12:23:06.328Z,99635.97
2023-04-22T12:24:46.036Z,99636.00
2023-04-22T12:26:20.128Z,99638.97
2023-04-22T12:27:51.944Z,99641.22
2023-04-22T12:29:32.595Z,99638.25
2023-04-22T12:31:04.844Z,99634.03
2023-04-22T12:32:36.797Z,99629.16
2023-04-22T12:34:08.712Z,99627.69
2023-04-22T12:35:41.054Z,99629.53
2023-04-22T12:37:12.972Z,99625.47
2023-04-22T12:38:44.880Z,99623.94
2023-04-22T12:40:16.918Z,99631.13
2023-04-22T12:41:51.185Z,99625.63
2023-04-22T12:43:23.013Z,99620.47
2023-04-22T12:44:54.969Z,99619.97
2023-04-22T12:46:26.827Z,99616.75
2023-04-22T12:47:58.771Z,99617.81
2023-04-22T12:49:30.726Z,99622.28
2023-04-22T12:51:02.975Z,99620.34
2023-04-22T12:52:35.687Z,99617.59
2023-04-22T12:54:07.489Z,99616.13
2023-04-22T12:55:39.338Z,99618.53
2023-04-22T12:57:12.167Z,99622.34
2023-04-22T12:58:44.024Z,99613.22
2023-04-22T13:00:16.440Z,99611.19
2023-04-22T13:01:48.281Z,99620.28
2023-04-22T13:03:20.323Z,99605.44
2023-04-22T13:04:52.324Z,99605.47
2023-04-22T13:06:24.215Z,99606.13
2023-04-22T13:08:06.660Z,99603.38
2023-04-22T13:09:40.087Z,99608.06
2023-04-22T13:11:12.206Z,99600.16
2023-04-22T13:12:44.341Z,99599.09
2023-04-22T13:14:16.203Z,99608.81
2023-04-22T13:15:53.819Z,99602.09
2023-04-22T13:17:26.737Z,99600.09
2023-04-22T13:18:58.566Z,99592.19
2023-04-22T13:20:30.532Z,99588.97
2023-04-22T13:22:02.744Z,99585.75
2023-04-22T13:23:35.538Z,99589.72
2023-04-22T13:25:08.673Z,99592.63
2023-04-22T13:26:40.514Z,99587.75
2023-04-22T13:28:12.330Z,99585.13
2023-04-22T13:29:45.107Z,99588.03
2023-04-22T13:31:16.972Z,99585.25
2023-04-22T13:32:48.811Z,99582.50
2023-04-22T13:34:20.746Z,99583.72
2023-04-22T13:35:52.586Z,99574.38
2023-04-22T13:37:24.437Z,99573.91
2023-04-22T13:38:57.433Z,99583.81
2023-04-22T13:40:29.377Z,99579.09
2023-04-22T13:42:01.813Z,99580.75
2023-04-22T13:43:33.619Z,99571.59
2023-04-22T13:45:06.343Z,99575.91
2023-04-22T13:46:39.054Z,99565.03
2023-04-22T13:48:11.297Z,99571.72
2023-04-22T13:49:43.084Z,99568.75
2023-04-22T13:51:15.147Z,99556.03
2023-04-22T13:52:48.321Z,99562.72
2023-04-22T13:54:20.537Z,99563.59
2023-04-22T13:55:52.343Z,99560.94
2023-04-22T13:57:24.169Z,99560.84
2023-04-22T13:58:55.983Z,99566.97
2023-04-22T14:00:27.857Z,99566.84
2023-04-22T14:01:59.710Z,99567.34
2023-04-22T14:03:31.789Z,99556.56
2023-04-22T14:05:05.667Z,99559.78
2023-04-22T14:06:38.142Z,99546.47
2023-04-22T14:08:09.930Z,99551.72
2023-04-22T14:09:42.174Z,99546.56
2023-04-22T14:11:14.404Z,99537.91
2023-04-22T14:12:47.557Z,99540.91
2023-04-22T14:14:19.378Z,99536.84
2023-04-22T14:15:51.236Z,99532.59
2023-04-22T14:17:24.021Z,99528.34
2023-04-22T14:18:56.132Z,99538.41
2023-04-22T14:20:28.050Z,99536.84
2023-04-22T14:21:59.926Z,99534.16
2023-04-22T14:23:32.078Z,99535.59
2023-04-22T14:25:06.561Z,99528.34
2023-04-22T14:26:38.455Z,99525.72
2023-04-22T14:28:10.473Z,99524.13
2023-04-22T14:29:42.736Z,99522.28
2023-04-22T14:31:15.395Z,99524.63
2023-04-22T14:32:47.318Z,99522.31
2023-04-22T14:34:19.150Z,99521.88
2023-04-22T14:35:52.419Z,99520.13
2023-04-22T14:37:24.276Z,99518.66
2023-04-22T14:38:56.536Z,99512.94
2023-04-22T14:40:29.448Z,99513.00
2023-04-22T14:42:02.750Z,99510.84
2023-04-22T14:43:34.767Z,99515.88
2023-04-22T14:45:07.239Z,99514.25
2023-04-22T14:46:39.213Z,99516.09
2023-04-22T14:48:11.451Z,99510.56
2023-04-22T14:49:43.350Z,99514.19
2023-04-22T14:51:15.862Z,99510.91
2023-04-22T14:52:47.663Z,99504.53
2023-04-22T14:54:19.442Z,99505.03
2023-04-22T14:55:51.341Z,99505.31
2023-04-22T14:57:23.162Z,99503.66
2023-04-22T14:58:54.943Z,99501.88
2023-04-22T15:00:27.089Z,99507.97
2023-04-22T15:01:59.358Z,99501.88
2023-04-22T15:03:32.224Z,99503.78
2023-04-22T15:05:04.461Z,99510.69
2023-04-22T15:06:36.258Z,99497.19
2023-04-22T15:08:08.054Z,99496.28
2023-04-22T15:09:40.081Z,99495.06
2023-04-22T15:11:12.082Z,99491.38
2023-04-22T15:12:44.988Z,99485.53
2023-04-22T15:14:17.443Z,99484.94
2023-04-22T15:15:49.345Z,99480.41
2023-04-22T15:17:21.507Z,99483.09
2023-04-22T15:18:54.568Z,99470.63
2023-04-22T15:20:26.396Z,99476.09
2023-04-22T15:21:58.188Z,99465.25
2023-04-22T15:23:29.975Z,99475.22
2023-04-22T15:25:02.334Z,99458.31
2023-04-22T15:26:37.519Z,99465.69
2023-04-22T15:28:09.348Z,99467.25
2023-04-22T15:29:45.355Z,99463.44
2023-04-22T15:31:18.794Z,99468.53
2023-04-22T15:32:50.683Z,99464.31
2023-04-22T15:34:23.366Z,99455.69
2023-04-22T15:35:55.149Z,99460.59
2023-04-22T15:37:27.292Z,99466.41
2023-04-22T15:38:59.601Z,99456.94
2023-04-22T15:40:31.784Z,99457.66
2023-04-22T15:42:03.717Z,99453.72
2023-04-22T15:43:35.612Z,99453.28
2023-04-22T15:45:08.086Z,99447.69
2023-04-22T15:46:39.999Z,99444.75
2023-04-22T15:48:11.827Z,99446.69
2023-04-22T15:49:43.953Z,99444.56
2023-04-22T15:51:17.127Z,99440.78
2023-04-22T15:52:49.552Z,99441.03
2023-04-22T15:54:21.403Z,99441.06
2023-04-22T15:55:53.232Z,99438.69
2023-04-22T15:57:25.030Z,99434.97
2023-04-22T15:58:56.835Z,99448.63
2023-04-22T16:00:28.872Z,99443.50
2023-04-22T16:02:01.193Z,99450.06
2023-04-22T16:03:33.977Z,99445.16
2023-04-22T16:05:06.273Z,99444.47
2023-04-22T16:06:38.617Z,99430.81
2023-04-22T16:08:10.980Z,99446.28
2023-04-22T16:09:43.558Z,99434.28
2023-04-22T16:11:16.182Z,99438.44
2023-04-22T16:12:48.193Z,99443.09
2023-04-22T16:14:20.045Z,99432.75
2023-04-22T16:15:51.900Z,99431.53
2023-04-22T16:17:23.720Z,99429.31
2023-04-22T16:18:55.900Z,99424.78
2023-04-22T16:20:27.835Z,99417.66
2023-04-22T16:21:59.723Z,99416.94
2023-04-22T16:23:32.766Z,99420.16
2023-04-22T16:25:05.401Z,99417.97
2023-04-22T16:26:37.238Z,99415.06
2023-04-22T16:28:12.000Z,99407.53
2023-04-22T16:29:43.948Z,99410.72
2023-04-22T16:31:18.242Z,99412.28
2023-04-22T16:32:50.307Z,99418.94
2023-04-22T16:34:22.171Z,99408.31
2023-04-22T16:35:54.008Z,99415.56
2023-04-22T16:37:27.159Z,99405.63
2023-04-22T16:38:59.016Z,99403.59
2023-04-22T16:40:31.637Z,99401.75
2023-04-22T16:42:03.609Z,99410.66
2023-04-22T16:43:35.483Z,99402.50
2023-04-22T16:45:08.157Z,99404.09
2023-04-22T16:46:40.358Z,99403.78
2023-04-22T16:48:12.249Z,99402.13
2023-04-22T16:49:44.182Z,99407.31
2023-04-22T16:51:16.031Z,99408.66
2023-04-22T16:52:47.955Z,99406.44
2023-04-22T16:54:19.749Z,99415.59
2023-04-22T16:55:51.621Z,99413.16
2023-04-22T16:57:23.512Z,99415.94
2023-04-22T16:58:55.359Z,99413.69
2023-04-22T17:00:27.191Z,99401.28
2023-04-22T17:01:59.083Z,99397.97
2023-04-22T17:03:32.053Z,99405.63
2023-04-22T17:05:04.680Z,99405.50
2023-04-22T17:06:38.522Z,99402.38
2023-04-22T17:08:11.627Z,99400.09
2023-04-22T17:09:43.700Z,99401.41
2023-04-22T17:11:16.103Z,99397.88
2023-04-22T17:12:48.426Z,99398.09
2023-04-22T17:14:20.285Z,99403.44
2023-04-22T17:15:52.137Z,99408.28
2023-04-22T17:17:23.969Z,99401.75
2023-04-22T17:18:55.894Z,99400.31
2023-04-22T17:20:27.699Z,99404.75
2023-04-22T17:21:59.709Z,99399.50
2023-04-22T17:23:31.685Z,99401.00
2023-04-22T17:25:04.136Z,99399.09
2023-04-22T17:26:37.302Z,99398.69
2023-04-22T17:28:11.157Z,99407.47
2023-04-22T17:29:43.140Z,99402.00
2023-04-22T17:31:15.496Z,99400.50
2023-04-22T17:32:47.545Z,99408.25
2023-04-22T17:34:19.422Z,99405.94
2023-04-22T17:35:51.256Z,99398.13
2023-04-22T17:37:23.076Z,99396.84
2023-04-22T17:38:55.055Z,99398.66
2023-04-22T17:40:27.142Z,99395.47
2023-04-22T17:41:58.954Z,99401.31
2023-04-22T17:43:30.782Z,99397.91
2023-04-22T17:45:02.741Z,99397.44
2023-04-22T17:46:34.960Z,99394.00
2023-04-22T17:48:06.943Z,99398.16
2023-04-22T17:49:39.135Z,99398.66
2023-04-22T17:51:11.715Z,99402.63
2023-04-22T17:52:43.571Z,99402.56
2023-04-22T17:54:15.510Z,99401.22
2023-04-22T17:55:47.465Z,99412.06
2023-04-22T17:57:19.356Z,99403.00
2023-04-22T17:58:51.171Z,99423.09
2023-04-22T18:00:23.192Z,99413.34
2023-04-22T18:01:55.000Z,99414.47
2023-04-22T18:03:27.949Z,99412.91
2023-04-22T18:05:00.013Z,99412.00
2023-04-22T18:06:32.592Z,99414.00
2023-04-22T18:08:04.548Z,99410.59
2023-04-22T18:09:36.392Z,99411.06
2023-04-22T18:11:08.600Z,99419.16
2023-04-22T18:12:41.071Z,99419.28
2023-04-22T18:14:12.944Z,99420.06
2023-04-22T18:15:44.794Z,99421.38
2023-04-22T18:17:20.179Z,99426.69
2023-04-22T18:18:52.002Z,99419.69
2023-04-22T18:20:23.865Z,99424.00
2023-04-22T18:22:00.131Z,99421.38